createdAt,value
2023-06-17T00:02:25.565Z,13.93
2023-06-17T00:04:53.280Z,13.13
2023-06-17T00:07:20.729Z,12.35
2023-06-17T00:09:48.271Z,11.40
2023-06-17T00:12:16.257Z,10.88
2023-06-17T00:14:44.717Z,10.48
2023-06-17T00:17:12.306Z,10.85
2023-06-17T00:19:41.372Z,10.82
2023-06-17T00:22:09.794Z,11.23
2023-06-17T00:24:37.853Z,11.70
2023-06-17T00:27:05.933Z,10.48
2023-06-17T00:29:33.367Z,10.23
2023-06-17T00:32:00.805Z,9.23
2023-06-17T00:34:28.468Z,12.00
2023-06-17T00:36:55.919Z,9.88
2023-06-17T00:39:23.392Z,11.95
2023-06-17T00:41:51.172Z,9.85
2023-06-17T00:44:18.858Z,9.48
2023-06-17T00:46:49.000Z,11.07
2023-06-17T00:49:17.338Z,12.23
2023-06-17T00:51:49.054Z,9.70
2023-06-17T00:54:25.384Z,11.68
2023-06-17T00:56:54.282Z,10.50
2023-06-17T00:59:21.749Z,11.88
2023-06-17T01:01:49.482Z,10.70
2023-06-17T01:04:17.124Z,10.43
2023-06-17T01:07:10.899Z,9.63
2023-06-17T01:09:40.051Z,11.00
2023-06-17T01:12:08.916Z,10.43
2023-06-17T01:14:36.776Z,9.50
2023-06-17T01:17:05.305Z,10.63
2023-06-17T01:19:36.516Z,9.65
2023-06-17T01:22:07.330Z,11.18
2023-06-17T01:24:35.390Z,10.48
2023-06-17T01:27:05.959Z,10.77
2023-06-17T01:29:42.431Z,8.93
2023-06-17T01:32:11.241Z,10.52
2023-06-17T01:34:55.234Z,10.43
2023-06-17T01:37:44.239Z,9.93
2023-06-17T01:40:14.171Z,10.97
2023-06-17T01:42:46.979Z,9.80
2023-06-17T01:45:15.019Z,11.68
2023-06-17T01:47:43.395Z,10.80
2023-06-17T01:50:11.472Z,9.33
2023-06-17T01:52:41.345Z,10.90
2023-06-17T01:55:09.158Z,9.07
2023-06-17T01:57:36.632Z,10.18
2023-06-17T02:00:05.559Z,10.98
2023-06-17T02:02:33.277Z,9.97
2023-06-17T02:05:02.242Z,9.50
2023-06-17T02:07:30.134Z,8.27
2023-06-17T02:09:57.939Z,10.60
2023-06-17T02:12:26.133Z,9.50
2023-06-17T02:14:53.734Z,10.70
2023-06-17T02:17:21.391Z,10.45
2023-06-17T02:19:49.244Z,9.02
2023-06-17T02:22:16.946Z,9.32
2023-06-17T02:24:44.450Z,9.50
2023-06-17T02:27:12.058Z,9.15
2023-06-17T02:29:40.120Z,10.93
2023-06-17T02:32:10.624Z,10.63
2023-06-17T02:34:39.597Z,10.33
2023-06-17T02:37:08.675Z,10.10
2023-06-17T02:39:37.368Z,9.27
2023-06-17T02:42:05.205Z,9.70
2023-06-17T02:44:32.976Z,11.73
2023-06-17T02:47:00.668Z,9.63
2023-06-17T02:49:28.316Z,8.95
2023-06-17T02:51:56.046Z,9.68
2023-06-17T02:54:23.534Z,10.18
2023-06-17T02:56:51.359Z,10.10
2023-06-17T02:59:19.184Z,9.57
2023-06-17T03:01:47.455Z,9.90
2023-06-17T03:04:15.374Z,9.73
2023-06-17T03:06:43.265Z,12.23
2023-06-17T03:09:11.323Z,10.90
2023-06-17T03:11:40.803Z,10.48
2023-06-17T03:14:08.912Z,9.53
2023-06-17T03:16:37.351Z,9.35
2023-06-17T03:19:05.007Z,10.00
2023-06-17T03:21:36.866Z,9.63
2023-06-17T03:24:04.986Z,10.91
2023-06-17T03:26:32.977Z,9.20
2023-06-17T03:29:00.434Z,11.98
2023-06-17T03:31:27.853Z,11.27
2023-06-17T03:33:55.978Z,10.38
2023-06-17T03:36:26.355Z,9.00
2023-06-17T03:38:54.118Z,9.40
2023-06-17T03:41:22.237Z,9.57
2023-06-17T03:43:51.037Z,10.73
2023-06-17T03:46:19.558Z,8.93
2023-06-17T03:48:48.014Z,10.02
2023-06-17T03:51:15.901Z,9.30
2023-06-17T03:53:43.738Z,9.38
2023-06-17T03:56:11.584Z,10.43
2023-06-17T03:58:39.597Z,10.07
2023-06-17T04:01:13.943Z,10.98
2023-06-17T04:03:43.209Z,9.50
2023-06-17T04:06:11.322Z,8.43
2023-06-17T04:08:38.752Z,9.40
2023-06-17T04:11:06.946Z,9.23
2023-06-17T04:13:35.247Z,10.38
2023-06-17T04:16:03.495Z,9.70
2023-06-17T04:18:31.525Z,9.00
2023-06-17T04:21:01.167Z,8.52
2023-06-17T04:23:29.101Z,9.73
2023-06-17T04:25:57.952Z,9.10
2023-06-17T04:28:25.689Z,9.85
2023-06-17T04:30:54.190Z,11.32
2023-06-17T04:33:25.806Z,10.90
2023-06-17T04:35:55.060Z,10.44
2023-06-17T04:38:24.307Z,9.60
2023-06-17T04:40:54.647Z,9.07
2023-06-17T04:43:24.289Z,9.32
2023-06-17T04:45:52.938Z,8.75
2023-06-17T04:48:22.000Z,8.65
2023-06-17T04:50:49.567Z,10.65
2023-06-17T04:53:17.562Z,10.65
2023-06-17T04:55:46.702Z,11.02
2023-06-17T04:58:15.400Z,11.25
2023-06-17T05:00:43.231Z,9.68
2023-06-17T05:03:11.887Z,9.55
2023-06-17T05:05:39.609Z,11.02
2023-06-17T05:08:07.978Z,10.73
2023-06-17T05:10:35.809Z,11.17
2023-06-17T05:13:03.899Z,10.25
2023-06-17T05:15:32.376Z,9.65
2023-06-17T05:17:59.851Z,9.68
2023-06-17T05:20:27.636Z,9.77
2023-06-17T05:22:55.778Z,8.73
2023-06-17T05:25:23.517Z,12.65
2023-06-17T05:27:51.672Z,11.02
2023-06-17T05:30:20.172Z,10.00
2023-06-17T05:32:48.311Z,10.00
2023-06-17T05:35:15.845Z,9.80
2023-06-17T05:37:43.596Z,10.23
2023-06-17T05:40:11.421Z,8.82
2023-06-17T05:42:39.471Z,10.45
2023-06-17T05:45:08.693Z,10.07
2023-06-17T05:47:36.248Z,10.25
2023-06-17T05:50:04.062Z,12.10
2023-06-17T05:52:32.605Z,10.02
2023-06-17T05:55:00.714Z,10.00
2023-06-17T05:57:28.218Z,10.13
2023-06-17T05:59:56.294Z,9.23
2023-06-17T06:02:23.822Z,8.37
2023-06-17T06:04:51.625Z,11.85
2023-06-17T06:07:19.066Z,9.10
2023-06-17T06:09:46.634Z,8.90
2023-06-17T06:12:17.582Z,10.80
2023-06-17T06:14:45.102Z,8.90
2023-06-17T06:17:12.470Z,8.15
2023-06-17T06:19:40.270Z,8.77
2023-06-17T06:22:07.806Z,8.52
2023-06-17T06:24:35.865Z,9.70
2023-06-17T06:27:04.124Z,9.10
2023-06-17T06:29:33.241Z,9.20
2023-06-17T06:32:00.725Z,9.40
2023-06-17T06:34:30.658Z,10.40
2023-06-17T06:36:59.374Z,9.35
2023-06-17T06:39:27.212Z,9.90
2023-06-17T06:41:55.549Z,11.88
2023-06-17T06:44:24.189Z,12.80
2023-06-17T06:46:57.334Z,7.68
2023-06-17T06:49:25.004Z,8.20
2023-06-17T06:51:52.486Z,9.00
2023-06-17T06:54:20.531Z,10.77
2023-06-17T06:56:48.308Z,8.23
2023-06-17T06:59:16.054Z,8.43
2023-06-17T07:01:43.568Z,9.02
2023-06-17T07:04:11.694Z,8.52
2023-06-17T07:06:39.281Z,8.20
2023-06-17T07:09:07.500Z,8.80
2023-06-17T07:11:36.314Z,9.03
2023-06-17T07:14:04.485Z,8.73
2023-06-17T07:16:33.510Z,8.75
2023-06-17T07:19:04.603Z,8.27
2023-06-17T07:21:32.761Z,9.05
2023-06-17T07:24:00.795Z,8.90
2023-06-17T07:26:28.845Z,9.38
2023-06-17T07:28:56.628Z,9.07
2023-06-17T07:31:24.740Z,7.57
2023-06-17T07:33:57.885Z,8.77
2023-06-17T07:36:27.254Z,7.25
2023-06-17T07:38:56.818Z,7.72
2023-06-17T07:41:26.615Z,7.72
2023-06-17T07:43:54.062Z,8.02
2023-06-17T07:46:21.925Z,7.20
2023-06-17T07:48:49.452Z,11.00
2023-06-17T07:51:16.963Z,7.40
2023-06-17T07:53:44.711Z,9.65
2023-06-17T07:56:12.227Z,9.00
2023-06-17T07:58:39.625Z,6.85
2023-06-17T08:01:07.362Z,8.07
2023-06-17T08:03:35.260Z,6.68
2023-06-17T08:06:02.797Z,7.25
2023-06-17T08:08:30.642Z,12.90
2023-06-17T08:10:58.391Z,12.60
2023-06-17T08:13:25.863Z,22.15
2023-06-17T08:15:53.396Z,7.68
2023-06-17T08:18:24.046Z,8.32
2023-06-17T08:20:52.050Z,7.30
2023-06-17T08:23:19.566Z,7.68
2023-06-17T08:25:47.879Z,6.65
2023-06-17T08:28:15.358Z,7.45
2023-06-17T08:30:42.804Z,7.63
2023-06-17T08:33:10.575Z,6.15
2023-06-17T08:35:40.312Z,9.30
2023-06-17T08:38:07.715Z,6.70
2023-06-17T08:40:36.668Z,7.30
2023-06-17T08:43:04.616Z,6.82
2023-06-17T08:45:32.078Z,7.00
2023-06-17T08:47:59.906Z,6.93
2023-06-17T08:50:28.972Z,6.40
2023-06-17T08:52:56.608Z,8.52
2023-06-17T08:55:24.292Z,6.70
2023-06-17T08:57:52.389Z,6.82
2023-06-17T09:00:20.392Z,8.07
2023-06-17T09:02:48.763Z,6.63
2023-06-17T09:05:16.927Z,6.15
2023-06-17T09:07:44.861Z,5.50
2023-06-17T09:10:16.104Z,6.62
2023-06-17T09:12:43.491Z,6.07
2023-06-17T09:15:16.600Z,6.40
2023-06-17T09:17:47.521Z,6.57
2023-06-17T09:20:16.903Z,7.53
2023-06-17T09:22:47.303Z,6.30
2023-06-17T09:25:16.311Z,6.80
2023-06-17T09:28:02.583Z,7.37
2023-06-17T09:30:37.593Z,6.37
2023-06-17T09:33:17.855Z,6.68
2023-06-17T09:35:46.051Z,6.30
2023-06-17T09:38:16.786Z,6.37
2023-06-17T09:40:44.182Z,7.43
2023-06-17T09:43:26.723Z,7.22
2023-06-17T09:46:00.982Z,6.65
2023-06-17T09:48:33.464Z,6.72
2023-06-17T09:51:01.212Z,7.25
2023-06-17T09:53:30.733Z,5.60
2023-06-17T09:56:00.079Z,6.32
2023-06-17T09:58:30.408Z,6.85
2023-06-17T10:00:59.111Z,6.25
2023-06-17T10:03:26.942Z,8.55
2023-06-17T10:05:58.427Z,5.93
2023-06-17T10:08:26.322Z,5.15
2023-06-17T10:10:54.734Z,6.03
2023-06-17T10:13:22.987Z,5.13
2023-06-17T10:15:51.298Z,5.82
2023-06-17T10:18:20.217Z,6.47
2023-06-17T10:20:49.393Z,6.50
2023-06-17T10:23:20.161Z,6.30
2023-06-17T10:25:47.976Z,6.85
2023-06-17T10:28:17.133Z,6.70
2023-06-17T10:30:46.172Z,7.12
2023-06-17T10:33:13.855Z,7.32
2023-06-17T10:35:43.034Z,5.65
2023-06-17T10:38:11.882Z,5.97
2023-06-17T10:40:48.557Z,6.45
2023-06-17T10:43:17.490Z,6.03
2023-06-17T10:45:52.334Z,6.07
2023-06-17T10:48:30.930Z,7.00
2023-06-17T10:51:02.055Z,7.78
2023-06-17T10:53:31.961Z,5.90
2023-06-17T10:56:01.062Z,5.75
2023-06-17T10:58:32.732Z,6.57
2023-06-17T11:01:08.816Z,5.60
2023-06-17T11:03:37.335Z,5.93
2023-06-17T11:06:06.820Z,6.35
2023-06-17T11:08:35.780Z,5.28
2023-06-17T11:11:21.776Z,6.10
2023-06-17T11:13:52.585Z,5.30
2023-06-17T11:16:20.153Z,7.80
2023-06-17T11:18:49.990Z,6.40
2023-06-17T11:21:19.340Z,5.30
2023-06-17T11:23:46.778Z,5.50
2023-06-17T11:26:14.324Z,6.20
2023-06-17T11:28:42.537Z,5.30
2023-06-17T11:31:10.062Z,5.35
2023-06-17T11:33:39.937Z,6.62
2023-06-17T11:36:09.721Z,5.28
2023-06-17T11:38:37.190Z,5.60
2023-06-17T11:41:04.897Z,6.37
2023-06-17T11:43:32.790Z,6.07
2023-06-17T11:46:00.759Z,5.10
2023-06-17T11:48:34.937Z,5.67
2023-06-17T11:51:02.989Z,5.22
2023-06-17T11:53:38.019Z,5.53
2023-06-17T11:56:06.938Z,4.70
2023-06-17T11:58:39.894Z,5.45
2023-06-17T12:01:10.971Z,4.80
2023-06-17T12:03:38.864Z,4.93
2023-06-17T12:06:06.744Z,6.53
2023-06-17T12:08:35.448Z,5.72
2023-06-17T12:11:24.019Z,7.60
2023-06-17T12:13:51.837Z,5.22
2023-06-17T12:16:27.207Z,5.07
2023-06-17T12:18:54.750Z,5.72
2023-06-17T12:21:22.903Z,5.35
2023-06-17T12:23:52.392Z,5.10
2023-06-17T12:26:26.661Z,4.78
2023-06-17T12:28:55.418Z,4.12
2023-06-17T12:31:24.236Z,4.62
2023-06-17T12:33:51.920Z,6.05
2023-06-17T12:36:19.637Z,5.40
2023-06-17T12:38:47.485Z,4.40
2023-06-17T12:41:15.916Z,6.55
2023-06-17T12:43:43.600Z,4.32
2023-06-17T12:46:11.102Z,4.53
2023-06-17T12:48:38.590Z,4.60
2023-06-17T12:51:06.283Z,4.07
2023-06-17T12:53:33.720Z,4.62
2023-06-17T12:56:02.442Z,4.87
2023-06-17T12:58:30.159Z,4.55
2023-06-17T13:00:58.055Z,4.78
2023-06-17T13:03:25.488Z,3.92
2023-06-17T13:05:53.209Z,4.12
2023-06-17T13:08:20.645Z,4.30
2023-06-17T13:10:48.182Z,4.70
2023-06-17T13:13:15.938Z,4.03
2023-06-17T13:15:43.379Z,3.28
2023-06-17T13:18:10.905Z,3.65
2023-06-17T13:20:38.664Z,5.03
2023-06-17T13:23:06.663Z,5.57
2023-06-17T13:25:34.041Z,3.30
2023-06-17T13:28:02.680Z,4.50
2023-06-17T13:30:31.744Z,3.75
2023-06-17T13:32:59.252Z,3.15
2023-06-17T13:35:26.945Z,5.00
2023-06-17T13:37:56.083Z,4.03
2023-06-17T13:40:23.818Z,4.10
2023-06-17T13:42:51.761Z,4.90
2023-06-17T13:45:19.688Z,4.53
2023-06-17T13:47:48.272Z,3.35
2023-06-17T13:50:15.950Z,4.43
2023-06-17T13:52:43.469Z,3.90
2023-06-17T13:55:10.902Z,2.80
2023-06-17T13:57:38.581Z,3.77
2023-06-17T14:00:06.696Z,3.30
2023-06-17T14:02:34.446Z,3.92
2023-06-17T14:05:02.106Z,3.08
2023-06-17T14:07:29.557Z,4.47
2023-06-17T14:09:57.308Z,4.20
2023-06-17T14:12:24.789Z,3.10
2023-06-17T14:14:52.180Z,4.32
2023-06-17T14:17:19.881Z,4.28
2023-06-17T14:19:47.295Z,3.33
2023-06-17T14:22:14.706Z,3.65
2023-06-17T14:24:43.019Z,4.20
2023-06-17T14:27:14.103Z,4.60
2023-06-17T14:29:41.554Z,3.07
2023-06-17T14:32:09.354Z,3.53
2023-06-17T14:34:36.760Z,3.55
2023-06-17T14:37:04.357Z,5.87
2023-06-17T14:39:32.135Z,4.45
2023-06-17T14:41:59.572Z,4.55
2023-06-17T14:44:26.977Z,5.00
2023-06-17T14:46:54.721Z,3.97
2023-06-17T14:49:22.150Z,3.45
2023-06-17T14:51:51.627Z,4.05
2023-06-17T14:54:19.441Z,3.73
2023-06-17T14:56:46.914Z,3.78
2023-06-17T14:59:14.935Z,3.78
2023-06-17T15:01:42.654Z,3.80
2023-06-17T15:04:13.390Z,4.50
2023-06-17T15:06:42.221Z,3.78
2023-06-17T15:09:28.810Z,3.28
2023-06-17T15:12:04.459Z,3.62
2023-06-17T15:14:34.932Z,4.22
2023-06-17T15:17:02.838Z,5.20
2023-06-17T15:19:31.803Z,4.50
2023-06-17T15:21:59.770Z,4.93
2023-06-17T15:24:27.340Z,7.28
2023-06-17T15:26:54.778Z,7.97
2023-06-17T15:29:22.518Z,5.35
2023-06-17T15:31:49.934Z,4.80
2023-06-17T15:34:17.339Z,5.57
2023-06-17T15:36:45.077Z,3.78
2023-06-17T15:39:32.578Z,8.82
2023-06-17T15:42:00.342Z,4.10
2023-06-17T15:44:29.114Z,3.65
2023-06-17T15:46:56.569Z,5.43
2023-06-17T15:49:24.250Z,6.57
2023-06-17T15:51:51.668Z,5.80
2023-06-17T15:54:19.410Z,4.40
2023-06-17T15:56:47.673Z,4.22
2023-06-17T15:59:15.758Z,4.05
2023-06-17T16:01:43.576Z,4.50
2023-06-17T16:04:33.382Z,3.78
2023-06-17T16:07:05.285Z,3.67
2023-06-17T16:09:35.455Z,3.65
2023-06-17T16:12:04.163Z,4.45
2023-06-17T16:14:33.527Z,3.58
2023-06-17T16:17:02.487Z,4.07
2023-06-17T16:19:32.704Z,3.97
2023-06-17T16:22:00.912Z,4.25
2023-06-17T16:24:28.978Z,3.57
2023-06-17T16:26:57.159Z,5.60
2023-06-17T16:29:24.577Z,13.43
2023-06-17T16:31:52.252Z,6.00
2023-06-17T16:34:19.723Z,4.37
2023-06-17T16:36:47.151Z,5.07
2023-06-17T16:39:14.848Z,8.93
2023-06-17T16:41:42.329Z,6.70
2023-06-17T16:44:09.822Z,7.35
2023-06-17T16:46:37.805Z,4.32
2023-06-17T16:49:05.799Z,5.65
2023-06-17T16:51:33.425Z,5.65
2023-06-17T16:54:03.760Z,5.32
2023-06-17T16:56:33.047Z,6.70
2023-06-17T16:59:02.126Z,6.43
2023-06-17T17:01:30.210Z,5.12
2023-06-17T17:04:01.157Z,6.43
2023-06-17T17:06:28.861Z,4.55
2023-06-17T17:08:56.399Z,5.25
2023-06-17T17:11:23.789Z,5.32
2023-06-17T17:13:51.750Z,6.05
2023-06-17T17:16:19.407Z,5.05
2023-06-17T17:18:47.122Z,5.72
2023-06-17T17:21:14.961Z,5.18
2023-06-17T17:23:42.580Z,6.00
2023-06-17T17:26:13.718Z,5.00
2023-06-17T17:28:42.107Z,5.18
2023-06-17T17:31:10.021Z,5.45
2023-06-17T17:33:37.781Z,5.10
2023-06-17T17:36:06.153Z,5.00
2023-06-17T17:38:33.536Z,4.60
2023-06-17T17:41:01.885Z,7.47
2023-06-17T17:43:30.820Z,7.87
2023-06-17T17:45:58.853Z,5.03
2023-06-17T17:48:26.519Z,5.00
2023-06-17T17:50:54.240Z,4.97
2023-06-17T17:53:21.963Z,7.40
2023-06-17T17:55:49.435Z,5.78
2023-06-17T17:58:17.342Z,5.05
2023-06-17T18:00:44.807Z,5.85
2023-06-17T18:03:12.753Z,5.67
2023-06-17T18:05:40.542Z,5.05
2023-06-17T18:08:07.982Z,6.93
2023-06-17T18:10:35.743Z,5.72
2023-06-17T18:13:03.368Z,6.07
2023-06-17T18:15:30.798Z,7.43
2023-06-17T18:17:59.198Z,6.22
2023-06-17T18:20:26.919Z,5.75
2023-06-17T18:22:54.383Z,6.37
2023-06-17T18:25:22.126Z,6.87
2023-06-17T18:27:49.557Z,5.75
2023-06-17T18:30:16.982Z,6.13
2023-06-17T18:32:44.731Z,6.22
2023-06-17T18:35:12.204Z,6.22
2023-06-17T18:37:41.785Z,7.85
2023-06-17T18:40:10.274Z,6.55
2023-06-17T18:42:37.736Z,8.65
2023-06-17T18:45:09.514Z,5.90
2023-06-17T18:47:37.982Z,6.28
2023-06-17T18:50:07.150Z,6.90
2023-06-17T18:52:34.703Z,7.00
2023-06-17T18:55:02.399Z,7.55
2023-06-17T18:57:30.650Z,6.90
2023-06-17T18:59:58.158Z,6.53
2023-06-17T19:02:28.131Z,9.05
2023-06-17T19:04:55.755Z,8.48
2023-06-17T19:07:23.180Z,7.62
2023-06-17T19:09:51.427Z,8.13
2023-06-17T19:12:19.073Z,8.30
2023-06-17T19:14:47.055Z,7.50
2023-06-17T19:17:15.072Z,6.57
2023-06-17T19:19:42.630Z,6.57
2023-06-17T19:22:10.382Z,6.20
2023-06-17T19:24:38.153Z,8.55
2023-06-17T19:27:05.899Z,7.22
2023-06-17T19:29:34.792Z,7.40
2023-06-17T19:32:02.885Z,7.33
2023-06-17T19:34:30.285Z,6.95
2023-06-17T19:36:57.702Z,7.85
2023-06-17T19:39:25.391Z,6.72
2023-06-17T19:41:52.824Z,7.37
2023-06-17T19:44:20.238Z,7.28
2023-06-17T19:46:48.025Z,6.32
2023-06-17T19:49:15.860Z,7.43
2023-06-17T19:51:43.281Z,7.45
2023-06-17T19:54:11.036Z,8.77
2023-06-17T19:56:38.445Z,7.45
2023-06-17T19:59:05.870Z,10.50
2023-06-17T20:01:33.612Z,9.43
2023-06-17T20:04:01.438Z,8.23
2023-06-17T20:06:29.986Z,7.30
2023-06-17T20:08:57.418Z,7.68
2023-06-17T20:11:26.908Z,8.60
2023-06-17T20:13:54.364Z,7.50
2023-06-17T20:16:22.301Z,9.35
2023-06-17T20:18:50.006Z,9.18
2023-06-17T20:21:17.625Z,9.57
2023-06-17T20:23:45.102Z,7.70
2023-06-17T20:26:12.829Z,8.70
2023-06-17T20:28:40.232Z,8.23
2023-06-17T20:31:07.862Z,7.20
2023-06-17T20:33:36.556Z,7.25
2023-06-17T20:36:06.173Z,7.60
2023-06-17T20:38:33.648Z,6.57
2023-06-17T20:41:01.464Z,6.87
2023-06-17T20:43:29.061Z,7.40
2023-06-17T20:45:57.083Z,8.65
2023-06-17T20:48:24.838Z,7.68
2023-06-17T20:50:52.309Z,9.27
2023-06-17T20:53:19.715Z,8.57
2023-06-17T20:55:47.553Z,8.27
2023-06-17T20:58:16.082Z,9.90
2023-06-17T21:00:43.553Z,9.00
2023-06-17T21:03:34.383Z,8.98
2023-06-17T21:06:01.860Z,8.57
2023-06-17T21:08:29.589Z,8.35
2023-06-17T21:10:57.277Z,8.13
2023-06-17T21:13:24.708Z,9.07
2023-06-17T21:15:52.501Z,9.50
2023-06-17T21:18:21.493Z,8.23
2023-06-17T21:20:51.308Z,8.27
2023-06-17T21:23:18.987Z,9.45
2023-06-17T21:25:46.434Z,7.95
2023-06-17T21:28:13.838Z,8.93
2023-06-17T21:30:41.759Z,8.63
2023-06-17T21:33:09.326Z,8.27
2023-06-17T21:35:36.817Z,9.10
2023-06-17T21:38:04.515Z,9.20
2023-06-17T21:40:31.958Z,7.20
2023-06-17T21:42:59.359Z,9.02
2023-06-17T21:45:27.085Z,7.90
2023-06-17T21:47:54.532Z,8.27
2023-06-17T21:50:22.229Z,8.05
2023-06-17T21:52:50.126Z,8.73
2023-06-17T21:55:17.530Z,9.37
2023-06-17T21:57:45.332Z,9.10
2023-06-17T22:00:15.720Z,8.82
2023-06-17T22:02:43.504Z,7.80
2023-06-17T22:05:11.104Z,7.47
2023-06-17T22:07:39.072Z,7.80
2023-06-17T22:10:07.438Z,7.22
2023-06-17T22:12:34.981Z,7.60
2023-06-17T22:15:04.106Z,6.80
2023-06-17T22:17:33.086Z,7.72
2023-06-17T22:20:00.530Z,7.10
2023-06-17T22:22:27.896Z,7.15
2023-06-17T22:24:55.559Z,7.60
2023-06-17T22:27:22.966Z,7.68
2023-06-17T22:29:50.546Z,8.88
2023-06-17T22:32:18.278Z,8.30
2023-06-17T22:34:45.772Z,7.78
2023-06-17T22:37:13.177Z,8.57
2023-06-17T22:39:40.893Z,7.40
2023-06-17T22:42:08.299Z,7.82
2023-06-17T22:44:35.796Z,7.65
2023-06-17T22:47:03.686Z,7.25
2023-06-17T22:49:32.445Z,9.13
2023-06-17T22:51:59.896Z,7.30
2023-06-17T22:54:27.543Z,8.40
2023-06-17T22:56:54.959Z,9.00
2023-06-17T22:59:22.345Z,8.43
2023-06-17T23:01:50.112Z,10.30
2023-06-17T23:04:17.565Z,8.93
2023-06-17T23:06:45.001Z,8.17
2023-06-17T23:09:12.720Z,8.47
2023-06-17T23:11:40.130Z,6.72
2023-06-17T23:14:09.325Z,7.87
2023-06-17T23:16:37.248Z,6.97
2023-06-17T23:19:04.691Z,6.80
2023-06-17T23:21:34.962Z,7.87
2023-06-17T23:24:04.450Z,7.68
2023-06-17T23:26:33.650Z,6.80
2023-06-17T23:29:01.071Z,6.80
2023-06-17T23:31:29.976Z,8.38
2023-06-17T23:33:57.452Z,6.70
2023-06-17T23:36:24.892Z,6.87
2023-06-17T23:38:52.855Z,6.65
2023-06-17T23:41:20.348Z,6.10
2023-06-17T23:43:47.877Z,6.70
2023-06-17T23:46:16.834Z,6.70
2023-06-17T23:48:44.356Z,7.80
2023-06-17T23:51:11.839Z,7.95
2023-06-17T23:53:39.572Z,6.70
2023-06-17T23:56:07.010Z,7.32
2023-06-17T23:58:34.472Z,7.55
